createdAt,value
2022-10-17T00:00:17.171Z,79.46
2022-10-17T00:05:25.493Z,79.50
2022-10-17T00:10:33.285Z,79.56
2022-10-17T00:15:45.086Z,79.58
2022-10-17T00:20:52.840Z,79.46
2022-10-17T00:26:07.198Z,79.20
2022-10-17T00:31:14.676Z,78.92
2022-10-17T00:36:24.138Z,78.51
2022-10-17T00:41:35.521Z,78.05
2022-10-17T00:46:45.776Z,77.63
2022-10-17T00:51:56.055Z,77.27
2022-10-17T00:57:04.040Z,76.96
2022-10-17T01:02:14.994Z,76.74
2022-10-17T01:07:22.406Z,76.62
2022-10-17T01:12:38.820Z,76.46
2022-10-17T01:18:00.917Z,76.20
2022-10-17T01:23:29.800Z,75.77
2022-10-17T01:29:07.680Z,75.32
2022-10-17T01:34:21.022Z,74.89
2022-10-17T01:39:40.067Z,74.37
2022-10-17T01:44:57.522Z,74.02
2022-10-17T01:50:09.604Z,73.73
2022-10-17T01:55:22.161Z,73.71
2022-10-17T02:00:32.692Z,73.62
2022-10-17T02:05:42.846Z,73.62
2022-10-17T02:10:56.643Z,73.80
2022-10-17T02:16:22.912Z,74.17
2022-10-17T02:21:37.051Z,74.24
2022-10-17T02:26:52.657Z,74.24
2022-10-17T02:32:06.375Z,74.27
2022-10-17T02:37:17.080Z,74.34
2022-10-17T02:42:26.640Z,74.42
2022-10-17T02:47:38.797Z,74.60
2022-10-17T02:52:53.569Z,74.88
2022-10-17T02:58:06.808Z,75.08
2022-10-17T03:03:26.572Z,75.27
2022-10-17T03:08:34.347Z,75.43
2022-10-17T03:13:42.038Z,75.50
2022-10-17T03:18:50.394Z,75.57
2022-10-17T03:23:58.285Z,75.59
2022-10-17T03:29:05.996Z,75.66
2022-10-17T03:34:14.214Z,75.68
2022-10-17T03:39:21.600Z,75.65
2022-10-17T03:44:29.012Z,75.61
2022-10-17T03:49:36.756Z,75.57
2022-10-17T03:54:45.210Z,75.53
2022-10-17T03:59:53.787Z,75.51
2022-10-17T04:05:02.051Z,75.46
2022-10-17T04:10:11.686Z,75.51
2022-10-17T04:15:20.137Z,75.47
2022-10-17T04:20:28.170Z,75.39
2022-10-17T04:25:38.109Z,75.37
2022-10-17T04:30:45.782Z,75.31
2022-10-17T04:36:01.341Z,75.36
2022-10-17T04:41:13.314Z,75.40
2022-10-17T04:46:20.651Z,75.45
2022-10-17T04:51:29.040Z,75.55
2022-10-17T04:56:52.127Z,75.60
2022-10-17T05:02:01.525Z,75.66
2022-10-17T05:07:11.245Z,75.72
2022-10-17T05:12:35.496Z,75.68
2022-10-17T05:17:43.746Z,75.70
2022-10-17T05:22:52.199Z,75.74
2022-10-17T05:28:02.461Z,75.88
2022-10-17T05:33:10.751Z,75.95
2022-10-17T05:38:19.375Z,75.94
2022-10-17T05:43:28.300Z,76.01
2022-10-17T05:48:36.572Z,76.15
2022-10-17T05:53:45.340Z,76.27
2022-10-17T05:59:01.026Z,76.47
2022-10-17T06:04:29.895Z,76.73
2022-10-17T06:09:38.208Z,77.05
2022-10-17T06:14:46.867Z,77.38
2022-10-17T06:19:55.690Z,77.68
2022-10-17T06:25:04.270Z,77.95
2022-10-17T06:30:13.867Z,78.18
2022-10-17T06:35:22.230Z,78.41
2022-10-17T06:40:30.641Z,78.61
2022-10-17T06:45:40.167Z,78.79
2022-10-17T06:51:10.472Z,78.88
2022-10-17T06:56:28.399Z,79.06
2022-10-17T07:02:08.968Z,79.14
2022-10-17T07:07:17.990Z,79.50
2022-10-17T07:12:26.586Z,79.72
2022-10-17T07:17:34.982Z,80.02
2022-10-17T07:22:43.031Z,80.31
2022-10-17T07:27:52.081Z,80.61
2022-10-17T07:33:01.941Z,80.77
2022-10-17T07:38:10.058Z,80.90
2022-10-17T07:43:18.464Z,81.05
2022-10-17T07:48:26.906Z,81.13
2022-10-17T07:53:36.438Z,81.21
2022-10-17T07:58:44.421Z,81.24
2022-10-17T08:03:52.759Z,81.53
2022-10-17T08:09:02.116Z,81.54
2022-10-17T08:14:10.348Z,81.49
2022-10-17T08:19:17.387Z,81.51
2022-10-17T08:24:25.638Z,81.64
2022-10-17T08:29:34.541Z,81.75
2022-10-17T08:34:42.988Z,82.01
2022-10-17T08:39:50.272Z,82.16
2022-10-17T08:45:08.489Z,82.34
2022-10-17T08:50:23.766Z,82.44
2022-10-17T08:55:41.448Z,82.41
2022-10-17T09:00:59.917Z,82.34
2022-10-17T09:06:20.934Z,82.34
2022-10-17T09:11:47.099Z,82.14
2022-10-17T09:17:05.740Z,81.96
2022-10-17T09:22:18.838Z,81.67
2022-10-17T09:27:34.059Z,81.27
2022-10-17T09:32:43.424Z,81.11
2022-10-17T09:37:52.586Z,80.94
2022-10-17T09:43:01.595Z,80.68
2022-10-17T09:48:19.916Z,80.34
2022-10-17T09:53:32.633Z,79.81
2022-10-17T09:58:48.255Z,79.42
2022-10-17T10:04:13.588Z,79.04
2022-10-17T10:09:27.323Z,78.39
2022-10-17T10:14:37.350Z,77.65
2022-10-17T10:19:53.986Z,77.09
2022-10-17T10:25:17.947Z,76.32
2022-10-17T10:30:36.157Z,75.97
2022-10-17T10:35:58.309Z,75.60
2022-10-17T10:41:09.680Z,75.03
2022-10-17T10:46:23.866Z,74.56
2022-10-17T10:51:38.043Z,74.06
2022-10-17T10:56:51.117Z,73.45
2022-10-17T11:02:05.482Z,73.11
2022-10-17T11:07:15.686Z,72.76
2022-10-17T11:12:26.855Z,72.60
2022-10-17T11:17:42.729Z,72.42
2022-10-17T11:22:54.249Z,72.29
2022-10-17T11:28:04.852Z,72.08
2022-10-17T11:33:18.471Z,71.80
2022-10-17T11:38:38.087Z,71.75
2022-10-17T11:43:53.539Z,71.80
2022-10-17T11:49:19.851Z,71.76
2022-10-17T11:54:36.301Z,71.76
2022-10-17T12:00:04.884Z,71.14
2022-10-17T12:05:24.124Z,70.69
2022-10-17T12:10:41.836Z,70.37
2022-10-17T12:15:49.754Z,69.71
2022-10-17T12:21:02.337Z,69.58
2022-10-17T12:26:11.880Z,69.32
2022-10-17T12:31:33.644Z,69.12
2022-10-17T12:36:43.818Z,69.09
2022-10-17T12:42:00.397Z,68.72
2022-10-17T12:47:40.791Z,68.65
2022-10-17T12:53:08.048Z,68.51
2022-10-17T12:58:18.201Z,68.33
2022-10-17T13:03:29.610Z,68.22
2022-10-17T13:08:40.897Z,68.09
2022-10-17T13:13:50.313Z,67.97
2022-10-17T13:18:58.978Z,67.73
2022-10-17T13:24:24.567Z,67.58
2022-10-17T13:29:33.344Z,67.61
2022-10-17T13:34:41.815Z,67.64
2022-10-17T13:40:00.428Z,67.76
2022-10-17T13:45:22.241Z,67.93
2022-10-17T13:50:45.787Z,68.04
2022-10-17T13:56:22.939Z,68.21
2022-10-17T14:01:30.311Z,68.37
2022-10-17T14:06:44.981Z,68.49
2022-10-17T14:12:05.228Z,68.66
2022-10-17T14:17:23.706Z,68.87
2022-10-17T14:22:36.657Z,69.08
2022-10-17T14:28:03.002Z,69.24
2022-10-17T14:33:15.750Z,69.39
2022-10-17T14:38:24.604Z,69.56
2022-10-17T14:43:34.442Z,69.67
2022-10-17T14:48:43.702Z,69.78
2022-10-17T14:54:05.706Z,69.89
2022-10-17T14:59:30.171Z,70.02
2022-10-17T15:04:46.418Z,70.17
2022-10-17T15:09:55.359Z,70.30
2022-10-17T15:15:02.936Z,70.44
2022-10-17T15:20:17.767Z,70.54
2022-10-17T15:25:25.883Z,70.62
2022-10-17T15:30:38.269Z,70.67
2022-10-17T15:35:46.235Z,70.71
2022-10-17T15:40:54.313Z,70.75
2022-10-17T15:46:04.307Z,70.81
2022-10-17T15:51:12.607Z,70.89
2022-10-17T15:56:24.980Z,71.00
2022-10-17T16:01:35.321Z,71.17
2022-10-17T16:06:44.665Z,71.35
2022-10-17T16:11:52.719Z,71.56
2022-10-17T16:17:00.721Z,71.79
2022-10-17T16:22:13.316Z,71.97
2022-10-17T16:27:22.541Z,72.08
2022-10-17T16:32:30.687Z,72.18
2022-10-17T16:37:38.897Z,72.28
2022-10-17T16:42:47.470Z,72.37
2022-10-17T16:47:56.222Z,72.46
2022-10-17T16:53:04.680Z,72.57
2022-10-17T16:58:12.804Z,72.68
2022-10-17T17:03:20.890Z,72.79
2022-10-17T17:08:29.751Z,72.86
2022-10-17T17:13:37.941Z,72.98
2022-10-17T17:18:47.173Z,73.10
2022-10-17T17:23:54.392Z,73.25
2022-10-17T17:29:03.262Z,73.35
2022-10-17T17:34:14.286Z,73.45
2022-10-17T17:39:25.403Z,73.51
2022-10-17T17:44:33.606Z,73.58
2022-10-17T17:49:41.414Z,73.64
2022-10-17T17:54:50.874Z,73.67
2022-10-17T17:59:59.213Z,73.70
2022-10-17T18:05:08.812Z,73.72
2022-10-17T18:10:17.280Z,73.73
2022-10-17T18:15:25.369Z,73.73
2022-10-17T18:20:34.343Z,73.75
2022-10-17T18:25:42.578Z,73.76
2022-10-17T18:30:50.825Z,73.80
2022-10-17T18:35:59.855Z,73.81
2022-10-17T18:41:12.238Z,73.83
2022-10-17T18:46:21.885Z,73.85
2022-10-17T18:51:30.173Z,73.86
2022-10-17T18:56:38.305Z,73.88
2022-10-17T19:01:46.946Z,73.87
2022-10-17T19:06:54.950Z,73.88
2022-10-17T19:12:03.286Z,73.87
2022-10-17T19:17:11.769Z,73.90
2022-10-17T19:22:19.885Z,73.92
2022-10-17T19:27:28.495Z,73.95
2022-10-17T19:32:37.080Z,73.97
2022-10-17T19:37:44.645Z,74.00
2022-10-17T19:42:52.778Z,74.01
2022-10-17T19:48:00.583Z,74.02
2022-10-17T19:53:08.463Z,74.05
2022-10-17T19:58:16.859Z,74.04
2022-10-17T20:03:25.592Z,74.09
2022-10-17T20:08:32.628Z,74.10
2022-10-17T20:13:41.139Z,74.10
2022-10-17T20:18:49.180Z,74.10
2022-10-17T20:23:57.680Z,74.10
2022-10-17T20:29:09.015Z,74.08
2022-10-17T20:34:18.957Z,74.08
2022-10-17T20:39:27.002Z,74.08
2022-10-17T20:44:35.278Z,74.06
2022-10-17T20:49:43.302Z,74.02
2022-10-17T20:54:52.169Z,73.98
2022-10-17T20:59:59.456Z,73.92
2022-10-17T21:05:08.216Z,73.88
2022-10-17T21:10:35.423Z,73.87
2022-10-17T21:15:44.744Z,73.85
2022-10-17T21:20:53.085Z,73.83
2022-10-17T21:26:07.415Z,73.82
2022-10-17T21:31:18.111Z,73.79
2022-10-17T21:36:27.065Z,73.79
2022-10-17T21:41:35.572Z,73.80
2022-10-17T21:46:43.924Z,73.81
2022-10-17T21:51:52.797Z,73.82
2022-10-17T21:57:00.717Z,73.85
2022-10-17T22:02:08.926Z,73.88
2022-10-17T22:07:17.194Z,73.90
2022-10-17T22:12:25.106Z,73.95
2022-10-17T22:17:32.966Z,73.97
2022-10-17T22:22:41.072Z,74.01
2022-10-17T22:27:49.041Z,74.03
2022-10-17T22:32:56.914Z,74.06
2022-10-17T22:38:04.802Z,74.11
2022-10-17T22:43:12.772Z,74.11
2022-10-17T22:48:20.631Z,74.11
2022-10-17T22:53:30.150Z,74.16
2022-10-17T22:58:38.730Z,74.19
2022-10-17T23:03:47.483Z,74.22
2022-10-17T23:08:55.906Z,74.24
2022-10-17T23:14:04.590Z,74.28
2022-10-17T23:19:12.167Z,74.28
2022-10-17T23:24:20.180Z,74.31
2022-10-17T23:29:33.081Z,74.35
2022-10-17T23:34:40.932Z,74.41
2022-10-17T23:39:48.748Z,74.45
2022-10-17T23:44:56.665Z,74.48
2022-10-17T23:50:04.699Z,74.50
2022-10-17T23:55:14.070Z,74.52
